Flight Track Log - Related Links

Times and Time Zones

All times are in EDT time to prevent confusion due to time zone crossing. See the UPS1269 flight status page for this flight to view local times or setup timezone preferences in your user account.

Time Position Orientation Groundspeed Altitude Reporting Facility
EDT Latitude Longitude Course Direction KTS MPH feet Rate Location/Type
Mon 11:32:41 PM 36.0676 -79.9750 226° Southwest 211 243 3,400  Level FlightAware ADS-B
Mon 11:32:57 PM 36.0554 -79.9929 246° West 236 272 4,200 2,571 Climbing FlightAware ADS-B
Mon 11:33:23 PM 36.0510 -80.0280 281° West 266 306 5,200 2,739 Climbing FlightAware ADS-B
Mon 11:33:43 PM 36.0558 -80.0498 290° West 279 321 6,300 3,632 Climbing FlightAware ADS-B
Mon 11:34:01 PM 36.0675 -80.0871 291° West 283 326 7,500 3,692 Climbing FlightAware ADS-B
Mon 11:34:22 PM 36.0762 -80.1159 290° West 294 338 8,700 3,366 Climbing FlightAware ADS-B
Mon 11:34:42 PM 36.0849 -80.1481 288° West 301 346 9,800 2,421 Climbing FlightAware ADS-B
Mon 11:35:19 PM 36.1018 -80.2150 287° West 351 404 11,000 1,926 Climbing FlightAware ADS-B
Mon 11:36:03 PM 36.1245 -80.3049 287° West 396 456 12,400 2,519 Climbing FlightAware ADS-B
Mon 11:36:40 PM 36.1455 -80.3876 288° West 408 470 14,400 3,000 Climbing FlightAware ADS-B
Mon 11:37:15 PM 36.1654 -80.4653 288° West 419 482 16,000 2,727 Climbing FlightAware ADS-B (NZFP)
Mon 11:37:46 PM 36.1824 -80.5284 292° West 428 493 17,400 2,656 Climbing FlightAware ADS-B (NZFP)
Mon 11:38:16 PM 36.2085 -80.6023 294° West 437 503 18,700 2,400 Climbing FlightAware ADS-B (NZFP)
Mon 11:38:46 PM 36.2342 -80.6741 294° West 447 514 19,800 2,164 Climbing FlightAware ADS-B (NZFP)
Mon 11:39:17 PM 36.2592 -80.7444 294° West 455 524 20,900 1,105 Climbing FlightAware ADS-B (NZFP)
Mon 11:40:02 PM 36.2987 -80.8562 294° West 460 529 21,200 1,463 Climbing FlightAware ADS-B (NZFP)
Mon 11:40:39 PM 36.3303 -80.9453 294° West 459 528 22,900 3,046 Climbing FlightAware ADS-B (NZFP)
Mon 11:41:07 PM 36.3547 -81.0144 293° West 461 531 24,500 1,864 Climbing FlightAware ADS-B (NZFP)
Mon 11:42:22 PM 36.4058 -81.1603 293° West 459 528 26,100 1,147 Climbing Indianapolis Center
Mon 11:43:23 PM 36.4683 -81.3394 293° West 468 539 27,100 1,770 Climbing Indianapolis Center
Mon 11:44:24 PM 36.5186 -81.4831 294° West 458 527 29,700 2,410 Climbing Indianapolis Center
Mon 11:45:25 PM 36.5675 -81.6250 293° West 441 507 32,000 1,078 Climbing Indianapolis Center
Mon 11:46:32 PM 36.6169 -81.7706 293° West 446 513 32,000  Level Atlanta Center
Mon 11:47:32 PM 36.6656 -81.9089 294° West 435 501 32,000  Level Atlanta Center
Mon 11:48:28 PM 36.7111 -82.0444 293° West 438 504 32,000  Level Indianapolis Center
Mon 11:49:29 PM 36.7586 -82.1833 293° West 437 503 32,000  Level Indianapolis Center
Mon 11:50:30 PM 36.8058 -82.3228 293° West 437 503 32,000  Level Indianapolis Center
Mon 11:51:31 PM 36.8531 -82.4636 293° West 438 504 32,000  Level Indianapolis Center
Mon 11:52:32 PM 36.9003 -82.6047 293° West 440 506 32,000  Level Indianapolis Center
Mon 11:53:33 PM 36.9486 -82.7489 293° West 452 520 32,000  Level Indianapolis Center
Mon 11:54:33 PM 37.0033 -82.9142 293° West 454 522 32,000  Level Indianapolis Center
Mon 11:55:34 PM 37.0506 -83.0575 292° West 453 521 32,000  Level Indianapolis Center
Mon 11:56:35 PM 37.0981 -83.2025 292° West 453 521 32,000 -148 Level Indianapolis Center
Mon 11:57:36 PM 37.1467 -83.3511 292° West 459 528 31,700 -639 Descending Indianapolis Center
Mon 11:58:37 PM 37.1950 -83.5006 292° West 461 531 30,700 -1,082 Descending Indianapolis Center
Mon 11:59:38 PM 37.2169 -83.6600 280° West 467 537 29,500 -1,131 Descending Indianapolis Center
Tue 12:00:39 AM 37.2253 -83.8294 274° West 471 542 28,400 -2,080 Descending Indianapolis Center
Tue 12:06:16 AM 37.5414 -84.5754 322° Northwest 393 452 15,700 -2,050 Descending FlightAware ADS-B
Tue 12:07:20 AM 37.6137 -84.6740 286° West 351 404 14,700 -1,366 Descending FlightAware ADS-B
Tue 12:08:19 AM 37.6304 -84.7853 280° West 318 366 12,900 -1,866 Descending FlightAware ADS-B
Tue 12:09:19 AM 37.6457 -84.8936 280° West 305 351 11,000 -1,418 Descending FlightAware ADS-B
Tue 12:11:21 AM 37.7362 -85.0654 314° West 296 341 8,600 -1,187 Descending FlightAware ADS-B
Tue 12:12:21 AM 37.7853 -85.1437 299° West 286 329 7,400 -1,150 Descending FlightAware ADS-B
Tue 12:13:21 AM 37.8195 -85.2361 295° West 284 327 6,300 -1,100 Descending FlightAware ADS-B
Tue 12:14:21 AM 37.8468 -85.3234 277° West 279 321 5,200 -1,109 Descending FlightAware ADS-B
Tue 12:15:20 AM 37.8567 -85.4230 277° West 278 320 4,100 -750 Descending FlightAware ADS-B
Tue 12:16:21 AM 37.8608 -85.5126 267° West 235 270 3,700 -595 Descending FlightAware ADS-B
Tue 12:17:21 AM 37.8590 -85.5942 284° West 228 262 2,900 -565 Descending FlightAware ADS-B
Tue 12:17:46 AM 37.8760 -85.6178 330° Northwest 232 267 2,900  Level FlightAware ADS-B
Tue 12:18:21 AM 37.9106 -85.6360 340° North 234 269 2,900  Level FlightAware ADS-B
Tue 12:19:21 AM 37.9729 -85.6587 347° North 232 267 2,900  Level FlightAware ADS-B
Tue 12:20:21 AM 38.0293 -85.6773 344° North 191 220 2,900 -450 Level FlightAware ADS-B
Tue 12:21:21 AM 38.0792 -85.6945 346° North 172 198 2,000 -800 Descending FlightAware ADS-B
Tue 12:22:21 AM 38.1194 -85.7083 345° North 132 152 1,300 -742 Descending FlightAware ADS-B
Tue 12:22:58 AM 38.1423 -85.7160 345° North 132 152 800 -811 Descending FlightAware ADS-B
Tue 12:30:00 AM 38.1667 -85.7333 208° Southwest  Level FlightAware Approximate
Tue 12:31:00 AM 38.1741 -85.7365 208° Southwest  Level Estimated

Login

Don't have an account? Register now (free) for customized features, flight alerts, and more!